Time;durP1;ratioP1;P1;durP2;ratioP2;P2;SDS_P1;SDS_P2;PMS_P1;PMS_P2;Temp;Humidity;BMP_temperature;BMP_pressure;BME280_temperature;BME280_humidity;BME280_pressure;Samples;Min_cycle;Max_cycle;Signal;HPM_P1;HPM_P2
2024/02/12 00:01:11;;;;;;;9.23;5.40;;;11.70;99.90;;;;;;5089595;28;20181;-74
2024/02/12 00:03:40;;;;;;;4.37;2.50;;;11.70;99.90;;;;;;5085155;28;20642;-74
2024/02/12 00:06:07;;;;;;;3.72;2.08;;;11.70;99.90;;;;;;5073754;28;20712;-72
2024/02/12 00:08:33;;;;;;;2.53;1.33;;;11.70;99.90;;;;;;5090164;28;20183;-72
2024/02/12 00:10:59;;;;;;;4.33;1.27;;;11.70;99.90;;;;;;5071723;28;20702;-72
2024/02/12 00:13:26;;;;;;;3.10;1.70;;;11.70;99.90;;;;;;5090349;28;20258;-72
2024/02/12 00:15:53;;;;;;;3.22;1.10;;;11.70;99.90;;;;;;5098431;28;20644;-72
2024/02/12 00:18:23;;;;;;;2.17;0.90;;;11.80;99.90;;;;;;5071920;28;20238;-72
2024/02/12 00:20:49;;;;;;;2.15;1.00;;;11.70;99.90;;;;;;5098175;28;20176;-72
2024/02/12 00:23:15;;;;;;;3.60;1.58;;;11.80;99.90;;;;;;5090068;28;20163;-72
2024/02/12 00:25:41;;;;;;;2.10;1.20;;;11.70;99.90;;;;;;5073845;28;20680;-72
2024/02/12 00:28:08;;;;;;;3.90;1.33;;;11.80;99.90;;;;;;5096641;28;20621;-72
2024/02/12 00:30:35;;;;;;;3.65;1.05;;;11.70;99.90;;;;;;5071145;28;20183;-72
2024/02/12 00:33:04;;;;;;;3.63;1.17;;;11.70;99.90;;;;;;5071981;28;20261;-71
2024/02/12 00:35:31;;;;;;;2.85;1.50;;;11.60;99.90;;;;;;5098279;28;20211;-72
2024/02/12 00:37:58;;;;;;;6.45;1.33;;;11.60;99.90;;;;;;5079800;28;20242;-72
2024/02/12 00:40:24;;;;;;;4.15;1.70;;;11.50;99.90;;;;;;5089616;28;20175;-72
2024/02/12 00:42:49;;;;;;;4.90;1.90;;;11.50;99.90;;;;;;5089989;28;20203;-72
2024/02/12 00:45:18;;;;;;;3.10;1.60;;;11.40;99.90;;;;;;5071952;28;20605;-72
2024/02/12 00:47:44;;;;;;;2.80;1.60;;;11.30;99.90;;;;;;5073668;28;20200;-72
2024/02/12 00:50:10;;;;;;;5.38;2.10;;;11.30;99.90;;;;;;5109657;28;20235;-72
2024/02/12 00:52:37;;;;;;;3.33;1.70;;;11.30;99.90;;;;;;5092393;28;20180;-72
2024/02/12 00:55:07;;;;;;;2.90;1.75;;;11.20;99.90;;;;;;5062694;28;20286;-72
2024/02/12 00:57:36;;;;;;;4.75;1.77;;;11.20;99.90;;;;;;5073559;28;20203;-72
2024/02/12 01:00:04;;;;;;;3.50;1.95;;;11.20;99.90;;;;;;5097485;28;20175;-72
2024/02/12 01:02:30;;;;;;;3.10;2.30;;;11.20;99.90;;;;;;5078915;28;20199;-72
2024/02/12 01:04:58;;;;;;;2.78;2.20;;;11.20;99.90;;;;;;5085227;28;20176;-76
2024/02/12 01:07:25;;;;;;;4.57;2.30;;;11.20;99.90;;;;;;5074747;28;20203;-76
2024/02/12 01:09:51;;;;;;;3.60;2.15;;;11.20;99.90;;;;;;5092687;28;20190;-76
2024/02/12 01:12:16;;;;;;;2.08;1.55;;;11.20;99.90;;;;;;5066892;28;20218;-76
2024/02/12 01:14:42;;;;;;;3.67;2.40;;;11.30;99.90;;;;;;5074892;28;20203;-76
2024/02/12 01:17:10;;;;;;;3.97;2.27;;;11.30;99.90;;;;;;5058134;28;20195;-76
2024/02/12 01:19:36;;;;;;;5.03;2.03;;;11.30;99.90;;;;;;5074751;28;20191;-76
2024/02/12 01:22:03;;;;;;;4.05;2.05;;;11.40;99.90;;;;;;5074190;28;20187;-76
2024/02/12 01:24:30;;;;;;;3.83;2.50;;;11.40;99.90;;;;;;5101491;28;20305;-76
2024/02/12 01:26:56;;;;;;;3.33;2.42;;;11.40;99.90;;;;;;5092546;28;20561;-76
2024/02/12 01:29:24;;;;;;;3.97;2.60;;;11.40;99.90;;;;;;5074675;28;20179;-76
2024/02/12 01:31:53;;;;;;;5.35;3.20;;;11.50;99.90;;;;;;5074103;28;20176;-76
2024/02/12 01:34:19;;;;;;;4.33;2.40;;;11.50;99.90;;;;;;5074680;28;20187;-76
2024/02/12 01:36:45;;;;;;;4.00;3.17;;;11.60;99.90;;;;;;5100726;28;20621;-77
2024/02/12 01:39:11;;;;;;;6.70;2.83;;;11.60;99.90;;;;;;5074339;28;20673;-77
2024/02/12 01:41:37;;;;;;;3.70;2.90;;;11.60;99.90;;;;;;5073516;28;20936;-76
2024/02/12 01:44:07;;;;;;;6.10;4.10;;;11.60;99.90;;;;;;5092489;28;20588;-74
2024/02/12 01:46:34;;;;;;;4.47;3.60;;;11.60;99.90;;;;;;5057661;28;20264;-74
2024/02/12 01:49:01;;;;;;;6.82;4.20;;;11.60;99.90;;;;;;5081224;28;20198;-74
2024/02/12 01:51:27;;;;;;;5.85;4.60;;;11.60;99.90;;;;;;5091627;28;20180;-74
2024/02/12 01:53:59;;;;;;;6.75;5.60;;;11.50;99.90;;;;;;5057420;28;20279;-74
2024/02/12 01:56:27;;;;;;;6.38;4.95;;;11.50;99.90;;;;;;5074302;28;20291;-73
2024/02/12 01:58:56;;;;;;;9.52;5.78;;;11.50;99.90;;;;;;5100654;28;20233;-74
2024/02/12 02:01:22;;;;;;;5.95;5.35;;;11.50;99.90;;;;;;5092740;28;20171;-74
2024/02/12 02:03:48;;;;;;;8.00;5.00;;;11.40;99.90;;;;;;5093060;28;20176;-77
2024/02/12 02:06:16;;;;;;;7.50;5.03;;;11.40;99.90;;;;;;5074004;28;20210;-76
2024/02/12 02:08:44;;;;;;;7.15;6.05;;;11.40;99.90;;;;;;5093172;28;20578;-77
2024/02/12 02:11:11;;;;;;;7.80;5.25;;;11.40;99.90;;;;;;5089137;28;20270;-77
2024/02/12 02:13:43;;;;;;;6.32;5.32;;;11.40;99.90;;;;;;5074108;28;20172;-76
2024/02/12 02:16:10;;;;;;;6.60;5.95;;;11.40;99.90;;;;;;5092162;28;20638;-77
2024/02/12 02:18:36;;;;;;;7.85;6.40;;;11.40;99.90;;;;;;5091686;28;20216;-76
2024/02/12 02:21:03;;;;;;;14.40;6.65;;;11.40;99.90;;;;;;5095256;28;20266;-77
2024/02/12 02:23:29;;;;;;;7.88;6.70;;;11.40;99.90;;;;;;5078156;28;20171;-76
2024/02/12 02:25:57;;;;;;;7.60;6.10;;;11.40;99.90;;;;;;5091683;28;20194;-77
2024/02/12 02:28:25;;;;;;;8.57;6.18;;;11.40;99.90;;;;;;5073655;28;20267;-76
2024/02/12 02:30:54;;;;;;;7.25;5.10;;;11.40;99.90;;;;;;5091183;28;20194;-76
2024/02/12 02:33:20;;;;;;;9.10;6.10;;;11.30;99.90;;;;;;5073559;28;20175;-76
2024/02/12 02:35:47;;;;;;;7.35;6.53;;;11.40;99.90;;;;;;5073184;28;20199;-76
2024/02/12 02:38:14;;;;;;;8.95;5.97;;;11.40;99.90;;;;;;5099698;28;20207;-76
2024/02/12 02:40:39;;;;;;;7.47;6.10;;;11.40;99.90;;;;;;5072894;28;20685;-77
2024/02/12 02:43:06;;;;;;;11.10;7.10;;;11.40;99.90;;;;;;5091610;28;20254;-76
2024/02/12 02:45:31;;;;;;;7.28;6.57;;;11.40;99.90;;;;;;5088697;28;20179;-76
2024/02/12 02:47:57;;;;;;;7.27;6.00;;;11.40;99.90;;;;;;5091623;28;20202;-76
2024/02/12 02:50:27;;;;;;;8.17;6.63;;;11.40;99.90;;;;;;5090699;28;20286;-77
2024/02/12 02:52:53;;;;;;;7.22;6.47;;;11.40;99.90;;;;;;5073253;28;20433;-76
2024/02/12 02:55:21;;;;;;;10.35;7.20;;;11.40;99.90;;;;;;5062386;28;20206;-77
2024/02/12 02:57:46;;;;;;;8.60;6.35;;;11.40;99.90;;;;;;5083503;28;20673;-77
2024/02/12 03:00:13;;;;;;;10.60;7.37;;;11.40;99.90;;;;;;5055697;28;20225;-77
2024/02/12 03:02:41;;;;;;;11.50;7.38;;;11.40;99.90;;;;;;5073090;28;20262;-75
2024/02/12 03:05:09;;;;;;;11.48;7.80;;;11.40;99.90;;;;;;5091142;28;20179;-72
2024/02/12 03:07:36;;;;;;;11.75;7.95;;;11.40;99.90;;;;;;5039466;28;20211;-72
2024/02/12 03:10:02;;;;;;;9.60;8.60;;;11.40;99.90;;;;;;5098892;28;20179;-72
2024/02/12 03:12:30;;;;;;;9.73;8.63;;;11.40;99.90;;;;;;5091118;28;20220;-72
2024/02/12 03:14:57;;;;;;;10.15;7.95;;;11.40;99.90;;;;;;5099246;28;20243;-72
2024/02/12 03:17:23;;;;;;;9.98;8.40;;;11.40;99.90;;;;;;5084949;28;20192;-72
2024/02/12 03:19:48;;;;;;;11.83;10.00;;;11.40;99.90;;;;;;5091223;28;20873;-73
2024/02/12 03:22:16;;;;;;;11.83;9.50;;;11.40;99.90;;;;;;5079912;28;20694;-73
2024/02/12 03:24:41;;;;;;;10.18;8.70;;;11.30;99.90;;;;;;5099199;28;20506;-72
2024/02/12 03:27:07;;;;;;;13.27;9.63;;;11.30;99.90;;;;;;5072594;28;20187;-72
2024/02/12 03:29:33;;;;;;;14.10;9.77;;;11.30;99.90;;;;;;5090550;28;20231;-73
2024/02/12 03:31:59;;;;;;;12.90;9.93;;;11.30;99.90;;;;;;5063541;28;20179;-73
2024/02/12 03:34:29;;;;;;;12.17;10.40;;;11.30;99.90;;;;;;5072610;28;20721;-73
2024/02/12 03:36:56;;;;;;;13.25;9.63;;;11.20;99.90;;;;;;5072128;28;20775;-73
2024/02/12 03:39:24;;;;;;;12.27;9.52;;;11.20;99.90;;;;;;5055821;28;20194;-73
2024/02/12 03:41:51;;;;;;;17.98;11.25;;;11.20;99.90;;;;;;5071910;28;20182;-73
2024/02/12 03:44:17;;;;;;;13.63;9.98;;;11.20;99.90;;;;;;5090547;28;20171;-73
2024/02/12 03:46:46;;;;;;;15.55;10.90;;;11.20;99.90;;;;;;5090385;28;20638;-73
2024/02/12 04:00:18;;;;;;;14.07;11.18;;;11.30;99.90;;;;;;5089957;28;20225;-73
2024/02/12 04:02:45;;;;;;;11.23;9.75;;;11.30;99.90;;;;;;5072386;28;20930;-73
2024/02/12 04:05:11;;;;;;;11.60;9.80;;;11.30;99.90;;;;;;5055523;28;20197;-73
2024/02/12 04:07:41;;;;;;;15.95;12.30;;;11.30;99.90;;;;;;5071973;28;20294;-73
2024/02/12 04:10:10;;;;;;;15.55;12.15;;;11.30;99.90;;;;;;5071579;28;20176;-73
2024/02/12 04:12:41;;;;;;;12.55;11.05;;;11.30;99.90;;;;;;5072229;28;20178;-73
2024/02/12 04:15:13;;;;;;;14.73;12.10;;;11.30;99.90;;;;;;5072233;28;20704;-73
2024/02/12 04:17:39;;;;;;;15.48;11.68;;;11.30;99.90;;;;;;5080323;28;20207;-73
2024/02/12 04:20:06;;;;;;;12.50;11.15;;;11.30;99.90;;;;;;5071601;28;20164;-73
2024/02/12 04:22:35;;;;;;;17.25;12.27;;;11.30;99.90;;;;;;5055602;28;20218;-73
2024/02/12 04:25:01;;;;;;;13.70;11.75;;;11.40;99.90;;;;;;5072143;28;20195;-73
2024/02/12 04:27:28;;;;;;;12.57;10.57;;;11.40;99.90;;;;;;5071755;28;20199;-73
2024/02/12 04:29:56;;;;;;;14.10;11.43;;;11.30;99.90;;;;;;5098081;28;20548;-73
2024/02/12 04:32:23;;;;;;;14.32;10.68;;;11.30;99.90;;;;;;5092281;28;20204;-73
2024/02/12 04:34:48;;;;;;;14.63;11.15;;;11.30;99.90;;;;;;5058874;28;20207;-73
2024/02/12 04:37:14;;;;;;;16.70;11.30;;;11.30;99.90;;;;;;5093697;28;20722;-73
2024/02/12 04:39:40;;;;;;;13.27;10.20;;;11.40;99.90;;;;;;5083883;28;20223;-73
2024/02/12 04:42:06;;;;;;;19.37;11.80;;;11.40;99.90;;;;;;5083594;28;20171;-73
2024/02/12 04:44:32;;;;;;;14.07;11.35;;;11.40;99.90;;;;;;5075648;28;20592;-73
2024/02/12 04:47:00;;;;;;;13.37;8.73;;;11.40;99.90;;;;;;5075455;28;20196;-73
2024/02/12 04:49:27;;;;;;;12.10;10.90;;;11.40;99.90;;;;;;5075509;28;20236;-73
2024/02/12 04:51:53;;;;;;;11.80;10.05;;;11.40;99.90;;;;;;5094435;28;20186;-74
2024/02/12 04:54:19;;;;;;;14.50;11.47;;;11.40;99.90;;;;;;5082450;28;20191;-73
2024/02/12 04:56:45;;;;;;;13.05;10.32;;;11.40;99.90;;;;;;5092952;28;20290;-73
2024/02/12 04:59:12;;;;;;;11.10;10.00;;;11.40;99.90;;;;;;5093170;28;20250;-73
2024/02/12 05:01:41;;;;;;;11.40;10.10;;;11.40;99.90;;;;;;5092645;28;20172;-72
2024/02/12 05:04:07;;;;;;;15.07;10.70;;;11.40;99.90;;;;;;5093371;28;20178;-74
2024/02/12 05:06:33;;;;;;;14.50;11.10;;;11.40;99.90;;;;;;5075012;28;20699;-75
2024/02/12 05:08:59;;;;;;;13.55;9.93;;;11.40;99.90;;;;;;5074759;28;20171;-75
2024/02/12 05:11:26;;;;;;;12.75;11.38;;;11.40;99.90;;;;;;5074373;28;20191;-75
2024/02/12 05:13:54;;;;;;;11.88;10.48;;;11.40;99.90;;;;;;5074975;28;20676;-75
2024/02/12 05:16:29;;;;;;;12.52;11.00;;;11.40;99.90;;;;;;5074987;28;20180;-75
2024/02/12 05:24:27;;;;;;;14.70;10.85;;;11.30;99.90;;;;;;5092834;28;20194;-75
2024/02/12 05:26:55;;;;;;;11.50;9.00;;;11.30;99.90;;;;;;5058027;28;20200;-75
2024/02/12 05:29:21;;;;;;;11.23;9.23;;;11.30;99.90;;;;;;5074903;28;20179;-75
2024/02/12 05:31:47;;;;;;;12.40;9.80;;;11.30;99.90;;;;;;5092360;28;20198;-75
2024/02/12 05:34:13;;;;;;;12.93;9.73;;;11.30;99.90;;;;;;5092932;28;20206;-75
2024/02/12 05:36:41;;;;;;;13.65;10.63;;;11.30;99.90;;;;;;5081826;28;20297;-75
2024/02/12 05:39:09;;;;;;;16.33;10.30;;;11.30;99.90;;;;;;5094407;28;20173;-75
2024/02/12 05:41:35;;;;;;;14.32;10.80;;;11.30;99.90;;;;;;5112677;28;20587;-75
2024/02/12 05:44:01;;;;;;;13.05;10.00;;;11.30;99.90;;;;;;5094320;28;20220;-75
2024/02/12 05:46:27;;;;;;;14.82;9.95;;;11.20;99.90;;;;;;5112984;28;20198;-75
2024/02/12 05:48:54;;;;;;;12.20;10.90;;;11.30;99.90;;;;;;5094411;28;20640;-75
2024/02/12 05:51:19;;;;;;;14.82;11.88;;;11.20;99.90;;;;;;5104791;28;20641;-75
2024/02/12 05:53:45;;;;;;;13.57;10.40;;;11.20;99.90;;;;;;5092295;28;20171;-75
2024/02/12 05:56:11;;;;;;;13.27;10.80;;;11.20;99.90;;;;;;5077461;28;20553;-75
2024/02/12 05:58:36;;;;;;;15.70;10.87;;;11.20;99.90;;;;;;5082494;28;20180;-75
2024/02/12 06:01:03;;;;;;;13.50;11.33;;;11.10;99.90;;;;;;5102378;28;20660;-75
2024/02/12 06:03:28;;;;;;;17.98;11.27;;;11.20;99.90;;;;;;5094527;28;20182;-78
2024/02/12 06:05:54;;;;;;;20.20;11.47;;;11.10;99.90;;;;;;5094532;28;20277;-77
2024/02/12 06:08:20;;;;;;;15.33;11.80;;;11.10;99.90;;;;;;5094200;28;20198;-77
2024/02/12 06:10:46;;;;;;;15.00;11.50;;;11.10;99.90;;;;;;5093809;28;20628;-77
2024/02/12 06:13:12;;;;;;;14.45;11.18;;;11.10;99.90;;;;;;5104127;28;20199;-75
2024/02/12 06:15:37;;;;;;;17.57;13.43;;;11.00;99.90;;;;;;5080977;28;20241;-76
2024/02/12 06:18:05;;;;;;;17.87;11.93;;;11.00;99.90;;;;;;5094096;28;20195;-76
2024/02/12 06:20:31;;;;;;;16.08;11.82;;;11.00;99.90;;;;;;5093573;28;20186;-78
2024/02/12 06:22:56;;;;;;;16.83;11.97;;;11.00;99.90;;;;;;5094017;28;20269;-77
2024/02/12 06:25:24;;;;;;;19.17;11.70;;;11.00;99.90;;;;;;5093935;28;20593;-77
2024/02/12 06:27:50;;;;;;;20.92;12.50;;;10.90;99.90;;;;;;5098957;28;20685;-77
2024/02/12 06:30:15;;;;;;;16.03;12.00;;;10.90;99.90;;;;;;5090931;28;20323;-77
2024/02/12 06:32:41;;;;;;;18.03;12.37;;;10.90;99.90;;;;;;5091601;28;20593;-77
2024/02/12 06:35:07;;;;;;;16.10;13.00;;;10.90;99.90;;;;;;5080188;28;20653;-77
2024/02/12 06:37:34;;;;;;;18.58;14.68;;;10.90;99.90;;;;;;5081191;28;20207;-77
2024/02/12 06:39:59;;;;;;;18.85;12.50;;;10.90;99.90;;;;;;5072651;28;20176;-77
2024/02/12 06:42:25;;;;;;;17.50;12.00;;;10.90;99.90;;;;;;5091572;28;20178;-77
2024/02/12 06:44:51;;;;;;;16.30;11.80;;;10.90;99.90;;;;;;5073203;28;20931;-77
2024/02/12 06:47:16;;;;;;;19.00;11.60;;;10.90;99.90;;;;;;5103305;28;20178;-77
2024/02/12 06:49:45;;;;;;;13.70;10.40;;;10.90;99.90;;;;;;5086047;28;20690;-77
2024/02/12 06:52:11;;;;;;;15.90;12.80;;;10.90;99.90;;;;;;5090297;28;20199;-77
2024/02/12 06:54:37;;;;;;;16.73;12.80;;;10.90;99.90;;;;;;5072036;28;20203;-77
2024/02/12 06:57:03;;;;;;;17.80;13.50;;;10.90;99.90;;;;;;5091039;28;20198;-78
2024/02/12 06:59:28;;;;;;;17.93;13.57;;;10.90;99.90;;;;;;5056356;28;20629;-77
2024/02/12 07:01:56;;;;;;;18.77;15.43;;;10.90;99.90;;;;;;5072377;28;20570;-77
2024/02/12 07:04:22;;;;;;;13.75;12.10;;;10.90;99.90;;;;;;5073263;28;20167;-77
2024/02/12 07:06:48;;;;;;;14.43;12.50;;;11.00;99.90;;;;;;5091074;28;20211;-77
2024/02/12 07:09:14;;;;;;;18.97;13.23;;;11.00;99.90;;;;;;5090864;28;20232;-77
2024/02/12 07:11:40;;;;;;;14.63;12.23;;;11.00;99.90;;;;;;5099004;28;20186;-77
2024/02/12 07:14:05;;;;;;;18.30;11.30;;;11.00;99.90;;;;;;5090889;28;20184;-78
2024/02/12 07:16:31;;;;;;;14.80;11.00;;;11.00;99.90;;;;;;5091196;28;20667;-77
2024/02/12 07:18:57;;;;;;;16.33;11.47;;;11.00;99.90;;;;;;5072698;28;20538;-77
2024/02/12 07:21:23;;;;;;;18.05;11.55;;;11.00;99.90;;;;;;5094531;28;20179;-77
2024/02/12 07:23:49;;;;;;;14.90;12.47;;;11.00;99.90;;;;;;5095381;28;20174;-77
2024/02/12 07:26:15;;;;;;;17.17;12.73;;;11.10;99.90;;;;;;5090545;28;20225;-78
2024/02/12 07:28:41;;;;;;;18.88;14.70;;;11.10;99.90;;;;;;5039107;28;20176;-78
2024/02/12 07:31:10;;;;;;;20.53;13.87;;;11.10;99.90;;;;;;5072100;28;20626;-78
2024/02/12 07:33:36;;;;;;;15.75;12.63;;;11.10;99.90;;;;;;5081007;28;20184;-75
2024/02/12 07:36:03;;;;;;;14.35;10.55;;;11.10;99.90;;;;;;5055301;28;20196;-75
2024/02/12 07:38:30;;;;;;;12.85;10.27;;;11.10;99.90;;;;;;5090404;28;20201;-76
2024/02/12 07:40:56;;;;;;;17.45;11.52;;;11.10;99.90;;;;;;5072037;28;20290;-77
2024/02/12 07:43:24;;;;;;;15.43;11.63;;;11.20;99.90;;;;;;5072682;28;20199;-76
2024/02/12 07:45:50;;;;;;;14.70;10.82;;;11.20;99.90;;;;;;5072480;28;20179;-76
2024/02/12 07:48:16;;;;;;;17.60;11.57;;;11.20;99.90;;;;;;5080740;28;20246;-76
2024/02/12 07:50:45;;;;;;;15.30;11.07;;;11.20;99.90;;;;;;5080281;28;20215;-76
2024/02/12 07:53:11;;;;;;;10.85;9.15;;;11.20;99.90;;;;;;5055629;28;20258;-76
2024/02/12 07:55:48;;;;;;;21.10;11.37;;;11.20;99.90;;;;;;5055603;28;20736;-76
2024/02/12 07:58:21;;;;;;;13.93;10.10;;;11.20;99.90;;;;;;5054599;28;20630;-76
2024/02/12 08:00:48;;;;;;;16.98;9.25;;;11.20;99.90;;;;;;5089204;28;20180;-77
2024/02/12 08:03:21;;;;;;;12.40;9.05;;;11.20;99.90;;;;;;5089801;28;20248;-71
2024/02/12 08:05:48;;;;;;;16.67;12.65;;;11.20;99.90;;;;;;5091838;28;20190;-72
2024/02/12 08:08:14;;;;;;;15.75;10.63;;;11.20;99.90;;;;;;5077282;28;20195;-73
2024/02/12 08:10:40;;;;;;;16.27;11.17;;;11.20;99.90;;;;;;5081666;28;20171;-73
2024/02/12 08:13:06;;;;;;;12.75;10.48;;;11.20;99.90;;;;;;5060340;28;20270;-72
2024/02/12 08:15:33;;;;;;;12.43;9.60;;;11.20;99.90;;;;;;5077865;28;20219;-71
2024/02/12 08:17:59;;;;;;;14.65;10.80;;;11.20;99.90;;;;;;5094014;28;20205;-71
2024/02/12 08:20:26;;;;;;;10.47;9.03;;;11.20;99.90;;;;;;5089948;28;20271;-71
2024/02/12 08:22:55;;;;;;;19.38;9.88;;;11.20;99.90;;;;;;5075997;28;20597;-71
2024/02/12 08:25:21;;;;;;;14.02;9.50;;;11.30;99.90;;;;;;5084316;28;20270;-71
2024/02/12 08:27:47;;;;;;;17.27;9.90;;;11.30;99.90;;;;;;5093750;28;20206;-71
2024/02/12 08:30:14;;;;;;;14.07;9.93;;;11.30;99.90;;;;;;5078341;28;20199;-71
2024/02/12 08:32:41;;;;;;;11.15;8.45;;;11.30;99.90;;;;;;5081637;28;20685;-71
2024/02/12 08:35:07;;;;;;;16.00;9.73;;;11.30;99.90;;;;;;5093787;28;20211;-71
2024/02/12 08:37:35;;;;;;;12.70;8.90;;;11.40;99.90;;;;;;5093359;28;20234;-71
2024/02/12 08:40:05;;;;;;;9.07;8.15;;;11.40;99.90;;;;;;5093275;28;20197;-72
2024/02/12 08:42:31;;;;;;;12.30;8.75;;;11.40;99.90;;;;;;5088497;28;20174;-71
2024/02/12 08:44:57;;;;;;;14.82;9.10;;;11.40;99.90;;;;;;5086858;28;20257;-72
2024/02/12 08:47:23;;;;;;;13.70;8.70;;;11.40;99.90;;;;;;5075273;28;20198;-72
2024/02/12 08:49:48;;;;;;;13.77;7.80;;;11.50;99.90;;;;;;5075603;28;20175;-73
2024/02/12 08:52:14;;;;;;;9.47;6.93;;;11.50;99.90;;;;;;5093201;28;20853;-72
2024/02/12 08:54:41;;;;;;;9.30;7.97;;;11.50;99.90;;;;;;5075433;28;20356;-72
2024/02/12 08:57:12;;;;;;;13.98;7.93;;;11.60;99.90;;;;;;5075597;28;20656;-72
2024/02/12 08:59:38;;;;;;;11.02;8.15;;;11.60;99.90;;;;;;5075140;28;20309;-72
2024/02/12 09:02:06;;;;;;;13.02;7.55;;;11.70;99.90;;;;;;5075564;28;20175;-71
2024/02/12 09:04:33;;;;;;;9.38;7.72;;;11.80;99.90;;;;;;5114091;28;20182;-72
2024/02/12 09:07:01;;;;;;;11.02;7.43;;;11.80;99.90;;;;;;5105312;28;20263;-72
2024/02/12 09:09:27;;;;;;;10.90;7.68;;;11.90;99.90;;;;;;5093408;28;20180;-72
2024/02/12 09:11:53;;;;;;;12.82;7.25;;;12.00;99.90;;;;;;5093079;28;20262;-71
2024/02/12 09:14:20;;;;;;;9.30;6.97;;;12.10;99.90;;;;;;5083429;28;20198;-72
2024/02/12 09:16:49;;;;;;;10.17;7.10;;;12.20;99.90;;;;;;5081358;28;20291;-72
2024/02/12 09:19:15;;;;;;;9.90;6.93;;;12.30;99.90;;;;;;5075948;28;20585;-72
2024/02/12 09:21:42;;;;;;;9.73;7.53;;;12.40;99.90;;;;;;5074525;28;20183;-72
2024/02/12 09:24:08;;;;;;;11.20;6.67;;;12.50;99.90;;;;;;5093062;28;20574;-72
2024/02/12 09:26:34;;;;;;;9.53;6.20;;;12.60;99.90;;;;;;5093022;28;20663;-72
2024/02/12 09:29:01;;;;;;;7.83;5.90;;;12.70;99.90;;;;;;5101059;28;20623;-72
2024/02/12 09:31:28;;;;;;;8.60;7.00;;;12.80;99.90;;;;;;5101074;28;20258;-72
2024/02/12 09:33:55;;;;;;;7.47;5.60;;;12.90;99.90;;;;;;5074868;28;21267;-71
2024/02/12 09:36:23;;;;;;;10.40;6.37;;;13.00;99.90;;;;;;5057625;28;21098;-72
2024/02/12 09:38:50;;;;;;;8.53;6.10;;;13.10;99.90;;;;;;5092448;28;20609;-71
2024/02/12 09:41:16;;;;;;;8.13;5.37;;;13.10;99.90;;;;;;5082305;28;20582;-72
2024/02/12 09:43:46;;;;;;;6.63;5.07;;;13.20;99.90;;;;;;5073870;28;21394;-72
2024/02/12 09:46:16;;;;;;;6.93;5.07;;;13.20;99.90;;;;;;5074050;28;20586;-73
2024/02/12 09:48:42;;;;;;;5.77;4.50;;;13.10;99.90;;;;;;5074104;28;20639;-72
2024/02/12 09:51:09;;;;;;;6.93;5.30;;;13.10;99.90;;;;;;5083125;28;20616;-74
2024/02/12 09:53:40;;;;;;;5.90;4.30;;;13.10;99.90;;;;;;5108707;28;20964;-75
2024/02/12 09:56:07;;;;;;;8.30;5.50;;;13.10;99.90;;;;;;5092705;28;20728;-75
2024/02/12 09:58:33;;;;;;;9.33;4.73;;;13.10;99.90;;;;;;5074750;28;20585;-75
2024/02/12 10:01:02;;;;;;;7.77;4.57;;;13.20;99.90;;;;;;5092334;28;20582;-75
2024/02/12 10:03:28;;;;;;;8.80;3.90;;;13.30;99.90;;;;;;5074692;28;20921;-74
2024/02/12 10:05:53;;;;;;;6.17;4.47;;;13.30;99.90;;;;;;5074526;28;20585;-75
2024/02/12 10:08:24;;;;;;;3.90;3.20;;;13.50;99.90;;;;;;5092384;28;20637;-75
2024/02/12 10:10:53;;;;;;;8.40;4.13;;;13.70;99.90;;;;;;5074201;28;20184;-74
2024/02/12 10:13:20;;;;;;;6.77;4.20;;;14.10;99.90;;;;;;5100724;28;20945;-74
2024/02/12 10:15:47;;;;;;;4.60;3.67;;;14.70;99.90;;;;;;5082494;28;20674;-75
2024/02/12 10:18:15;;;;;;;4.03;3.07;;;15.30;99.90;;;;;;5057328;28;20652;-75
2024/02/12 10:20:45;;;;;;;4.97;3.33;;;16.10;99.90;;;;;;5091782;28;20642;-75
2024/02/12 10:23:15;;;;;;;5.60;2.97;;;16.90;99.90;;;;;;5092090;28;20573;-75
2024/02/12 10:25:43;;;;;;;4.00;2.57;;;17.70;99.90;;;;;;5102085;28;21136;-75
2024/02/12 10:28:15;;;;;;;5.43;2.90;;;18.40;99.90;;;;;;5092964;28;20739;-75
2024/02/12 10:30:42;;;;;;;3.83;1.70;;;18.90;99.90;;;;;;5073368;28;20590;-74
2024/02/12 10:33:10;;;;;;;5.20;2.47;;;19.50;99.90;;;;;;5092380;28;20664;-74
2024/02/12 10:35:46;;;;;;;2.40;1.50;;;20.00;99.90;;;;;;5089228;28;20633;-76
2024/02/12 10:38:14;;;;;;;5.80;2.40;;;20.50;99.90;;;;;;5081916;28;21110;-76
2024/02/12 10:41:04;;;;;;;2.90;1.80;;;21.00;99.90;;;;;;5091486;28;20629;-76
2024/02/12 10:43:32;;;;;;;5.43;1.90;;;21.40;99.90;;;;;;5091909;28;20927;-75
2024/02/12 10:46:00;;;;;;;3.73;1.80;;;21.90;99.90;;;;;;5091842;28;20608;-75
2024/02/12 10:48:30;;;;;;;6.57;1.93;;;22.10;99.90;;;;;;5073292;28;20617;-75
2024/02/12 10:50:56;;;;;;;3.73;1.67;;;22.10;99.90;;;;;;5073070;28;20609;-74
2024/02/12 10:53:26;;;;;;;3.30;1.60;;;21.90;99.90;;;;;;5094060;28;20693;-75
2024/02/12 10:55:53;;;;;;;5.17;1.43;;;21.60;99.90;;;;;;5072284;28;20660;-76
2024/02/12 10:58:19;;;;;;;4.47;1.87;;;21.30;99.90;;;;;;5092337;28;20709;-76
2024/02/12 11:00:56;;;;;;;3.40;1.40;;;21.00;99.90;;;;;;5096882;28;20691;-75
2024/02/12 11:03:35;;;;;;;2.50;1.20;;;20.80;99.90;;;;;;5074253;28;20654;-75
2024/02/12 11:06:04;;;;;;;3.80;1.40;;;20.50;99.90;;;;;;5091485;28;20581;-75
2024/02/12 11:08:35;;;;;;;4.00;1.83;;;20.30;99.90;;;;;;5084774;28;20628;-75
2024/02/12 11:11:03;;;;;;;3.50;1.60;;;19.90;99.90;;;;;;5076882;28;20659;-75
2024/02/12 11:13:39;;;;;;;3.13;1.40;;;19.50;99.90;;;;;;5076333;28;20588;-75
2024/02/12 11:16:06;;;;;;;4.20;1.80;;;19.00;99.90;;;;;;5094787;28;20629;-75
2024/02/12 11:18:35;;;;;;;4.47;2.63;;;18.50;99.90;;;;;;5078908;28;20617;-74
2024/02/12 11:21:01;;;;;;;4.87;1.90;;;18.10;99.90;;;;;;5085800;28;20605;-76
2024/02/12 11:23:28;;;;;;;4.70;1.30;;;17.70;99.90;;;;;;5072774;28;20577;-76
2024/02/12 11:26:05;;;;;;;3.60;1.20;;;17.30;99.90;;;;;;5098238;28;21049;-76
2024/02/12 11:28:32;;;;;;;3.30;1.70;;;16.80;99.90;;;;;;5072156;28;20705;-76
2024/02/12 11:30:58;;;;;;;4.53;1.70;;;16.50;99.90;;;;;;5079197;28;20641;-76
2024/02/12 11:33:25;;;;;;;3.10;1.53;;;16.20;99.90;;;;;;5092185;28;20586;-77
2024/02/12 11:36:11;;;;;;;5.90;1.67;;;15.90;99.90;;;;;;5079218;28;20631;-76
2024/02/12 11:38:52;;;;;;;5.63;1.83;;;15.60;99.90;;;;;;5082847;28;21115;-76
2024/02/12 11:41:17;;;;;;;4.13;1.87;;;15.50;99.90;;;;;;5099740;28;20582;-74
2024/02/12 11:43:45;;;;;;;5.80;1.90;;;15.40;99.90;;;;;;5090865;28;20938;-74
2024/02/12 11:46:15;;;;;;;4.27;1.30;;;15.20;99.90;;;;;;5090368;28;20179;-74
2024/02/12 11:48:43;;;;;;;5.60;1.20;;;15.20;99.90;;;;;;5084925;28;20585;-73
2024/02/12 11:51:09;;;;;;;3.77;1.47;;;15.10;99.90;;;;;;5101986;28;21221;-75
2024/02/12 11:53:39;;;;;;;3.73;1.20;;;15.00;99.90;;;;;;5072874;28;20588;-74
2024/02/12 11:56:06;;;;;;;5.23;1.43;;;14.90;99.90;;;;;;5090638;28;20626;-75
2024/02/12 11:58:32;;;;;;;4.87;1.40;;;14.80;99.90;;;;;;5080845;28;20692;-75
2024/02/12 12:00:58;;;;;;;3.30;1.10;;;14.80;99.90;;;;;;5063912;28;20696;-75
2024/02/12 12:03:25;;;;;;;5.57;1.50;;;14.70;99.90;;;;;;5074621;28;20215;-75
2024/02/12 12:05:52;;;;;;;7.73;1.93;;;14.70;99.90;;;;;;5096828;28;20906;-75
2024/02/12 12:08:24;;;;;;;2.73;1.13;;;14.60;99.90;;;;;;5073327;28;21021;-73
2024/02/12 12:10:50;;;;;;;5.47;1.30;;;14.50;99.90;;;;;;5110802;28;20580;-74
2024/02/12 12:13:20;;;;;;;3.80;1.40;;;14.50;99.90;;;;;;5083686;28;20621;-73
2024/02/12 12:15:46;;;;;;;7.17;1.70;;;14.40;99.90;;;;;;5077415;28;20624;-74
2024/02/12 12:18:12;;;;;;;3.60;1.30;;;14.30;99.90;;;;;;5075516;28;20612;-73
2024/02/12 12:20:38;;;;;;;5.57;1.70;;;14.30;99.90;;;;;;5094013;28;20210;-74
2024/02/12 12:23:09;;;;;;;5.80;1.50;;;14.20;99.90;;;;;;5110737;28;20948;-71
2024/02/12 12:25:38;;;;;;;6.17;1.83;;;14.20;99.90;;;;;;5092315;28;20626;-71
2024/02/12 12:28:06;;;;;;;5.10;1.87;;;14.10;99.90;;;;;;5092129;28;21499;-71
2024/02/12 12:30:32;;;;;;;6.63;2.03;;;14.10;99.90;;;;;;5090225;28;20594;-71
2024/02/12 12:32:58;;;;;;;3.80;1.40;;;14.10;99.90;;;;;;5072033;28;20631;-71
2024/02/12 12:35:24;;;;;;;5.70;2.23;;;14.00;99.90;;;;;;5090152;28;20659;-71
2024/02/12 12:37:52;;;;;;;5.17;3.37;;;13.80;99.90;;;;;;5089740;28;20621;-71
2024/02/12 12:40:25;;;;;;;5.20;2.73;;;13.60;99.90;;;;;;5089547;28;20570;-71
2024/02/12 12:42:53;;;;;;;4.53;2.23;;;13.50;99.90;;;;;;5072057;28;20592;-70
2024/02/12 12:45:21;;;;;;;5.38;1.95;;;13.30;99.90;;;;;;5089977;28;20609;-71
2024/02/12 12:47:48;;;;;;;3.60;1.33;;;13.30;99.90;;;;;;5102994;28;20203;-71
2024/02/12 12:50:14;;;;;;;3.03;1.27;;;13.30;99.90;;;;;;5109682;28;20581;-71
2024/02/12 12:52:41;;;;;;;3.67;1.43;;;13.30;99.90;;;;;;5111192;28;20659;-71
2024/02/12 12:55:08;;;;;;;3.67;1.10;;;13.30;99.90;;;;;;5108547;28;20643;-71